Terminal Aerodrome Forecast
Issued by NWS

Home | Current Version | Previous Version | Text Only | Print | Product List | Glossary On
Versions: 1 2 3 4 5 6 7 8 9 10 11 12 13 14 15 16 17 18 19
460
FTUS46 KHNX 111122
TAFFAT
TAF
KFAT 111122Z 1112/1212 VRB04KT P6SM BKN035 OVC150
     FM112100 31005KT P6SM BKN150
     FM120600 VRB03KT 4SM BR BKN150
      TEMPO 1208/1212 2SM BR=

USA.gov is the U.S. government's official web portal to all federal, state and local government web resources and services.